Time;durP1;ratioP1;P1;durP2;ratioP2;P2;SDS_P1;SDS_P2;PMS_P1;PMS_P2;Temp;Humidity;BMP_temperature;BMP_pressure;BME280_temperature;BME280_humidity;BME280_pressure;Samples;Min_cycle;Max_cycle;Signal;HPM_P1;HPM_P2
2021/04/04 00:02:07;;;;;;;0.07;0.07;;;;;;;;;;4999110;28;20196;-63
2021/04/04 00:04:33;;;;;;;0.10;0.10;;;;;;;;;;5012096;28;20253;-62
2021/04/04 00:07:03;;;;;;;0.00;0.00;;;;;;;;;;5018579;28;20186;-62
2021/04/04 00:09:31;;;;;;;0.00;0.00;;;;;;;;;;5015806;28;20249;-63
2021/04/04 00:12:00;;;;;;;1.17;1.17;;;;;;;;;;5017397;28;20187;-62
2021/04/04 00:14:27;;;;;;;0.20;0.10;;;;;;;;;;5016769;28;20874;-61
2021/04/04 00:16:55;;;;;;;0.03;0.03;;;;;;;;;;5014059;28;20213;-62
2021/04/04 00:19:22;;;;;;;0.07;0.07;;;;;;;;;;5014976;28;20924;-65
2021/04/04 00:21:50;;;;;;;0.27;0.27;;;;;;;;;;4999230;28;20195;-64
2021/04/04 00:24:17;;;;;;;0.00;0.00;;;;;;;;;;5014948;28;20234;-63
2021/04/04 00:26:47;;;;;;;0.30;0.10;;;;;;;;;;4999082;28;20224;-63
2021/04/04 00:29:14;;;;;;;0.07;0.07;;;;;;;;;;5011065;28;20250;-64
2021/04/04 00:31:43;;;;;;;0.00;0.00;;;;;;;;;;5014565;28;20187;-63
2021/04/04 00:34:10;;;;;;;0.10;0.10;;;;;;;;;;5016961;28;20284;-64
2021/04/04 00:36:37;;;;;;;0.10;0.10;;;;;;;;;;5016800;28;20357;-63
2021/04/04 00:39:11;;;;;;;0.10;0.10;;;;;;;;;;5011058;28;20230;-63
2021/04/04 00:41:38;;;;;;;0.03;0.03;;;;;;;;;;5015595;28;20987;-63
2021/04/04 00:44:05;;;;;;;0.00;0.00;;;;;;;;;;5007795;28;20219;-61
2021/04/04 00:46:31;;;;;;;0.00;0.00;;;;;;;;;;5010692;28;20274;-63
2021/04/04 00:49:03;;;;;;;0.00;0.00;;;;;;;;;;5012673;28;20230;-63
2021/04/04 00:51:32;;;;;;;0.00;0.00;;;;;;;;;;5009245;28;20698;-63
2021/04/04 00:53:59;;;;;;;0.00;0.00;;;;;;;;;;5013121;28;20886;-63
2021/04/04 00:56:27;;;;;;;0.00;0.00;;;;;;;;;;5011907;28;20615;-63
2021/04/04 00:58:54;;;;;;;0.10;0.10;;;;;;;;;;5014912;28;20195;-63
2021/04/04 01:01:22;;;;;;;0.00;0.00;;;;;;;;;;5008957;28;20280;-62
2021/04/04 01:03:50;;;;;;;0.00;0.00;;;;;;;;;;5018722;28;20301;-62
2021/04/04 01:06:18;;;;;;;0.00;0.00;;;;;;;;;;5018386;28;20281;-61
2021/04/04 01:08:46;;;;;;;0.00;0.00;;;;;;;;;;5017704;28;20291;-61
2021/04/04 01:11:14;;;;;;;0.10;0.10;;;;;;;;;;4999925;28;20644;-61
2021/04/04 01:14:02;;;;;;;0.10;0.10;;;;;;;;;;5001188;28;20195;-61
2021/04/04 01:16:36;;;;;;;0.10;0.10;;;;;;;;;;5015925;28;20200;-61
2021/04/04 01:19:11;;;;;;;0.00;0.00;;;;;;;;;;5012480;28;20725;-61
2021/04/04 01:21:41;;;;;;;0.67;0.67;;;;;;;;;;5009224;28;20191;-61
2021/04/04 01:24:12;;;;;;;0.70;0.30;;;;;;;;;;5010874;28;20231;-62
2021/04/04 01:26:38;;;;;;;0.00;0.00;;;;;;;;;;5015349;28;20209;-62
2021/04/04 01:29:05;;;;;;;0.10;0.10;;;;;;;;;;5011083;28;20191;-62
2021/04/04 01:31:37;;;;;;;0.00;0.00;;;;;;;;;;5018557;28;20214;-62
2021/04/04 01:34:05;;;;;;;0.10;0.10;;;;;;;;;;5013908;28;20183;-61
2021/04/04 01:36:37;;;;;;;0.10;0.10;;;;;;;;;;5013392;28;20820;-61
2021/04/04 01:39:07;;;;;;;0.10;0.10;;;;;;;;;;4991009;28;20894;-61
2021/04/04 01:41:36;;;;;;;0.43;0.43;;;;;;;;;;5010146;28;20369;-61
2021/04/04 01:44:05;;;;;;;0.10;0.10;;;;;;;;;;5011131;28;20504;-60
2021/04/04 01:46:33;;;;;;;0.10;0.10;;;;;;;;;;5013723;28;20199;-61
2021/04/04 01:49:00;;;;;;;0.10;0.10;;;;;;;;;;5015633;28;20195;-60
2021/04/04 01:51:27;;;;;;;0.63;0.63;;;;;;;;;;5014660;28;20191;-60
2021/04/04 01:53:58;;;;;;;0.00;0.00;;;;;;;;;;5014561;28;20273;-63
2021/04/04 01:56:25;;;;;;;0.13;0.13;;;;;;;;;;5010854;28;21012;-61
2021/04/04 01:58:54;;;;;;;0.00;0.00;;;;;;;;;;5010353;28;20220;-61
2021/04/04 02:01:21;;;;;;;0.00;0.00;;;;;;;;;;5011295;28;20217;-60
2021/04/04 02:03:48;;;;;;;0.30;0.30;;;;;;;;;;5011484;28;20223;-62
2021/04/04 02:06:18;;;;;;;0.00;0.00;;;;;;;;;;5016967;28;20183;-61
2021/04/04 02:08:47;;;;;;;0.10;0.10;;;;;;;;;;5011390;28;20679;-60
2021/04/04 02:11:21;;;;;;;0.00;0.00;;;;;;;;;;5010939;28;20202;-61
2021/04/04 02:13:49;;;;;;;0.00;0.00;;;;;;;;;;5016091;28;20205;-60
2021/04/04 02:16:17;;;;;;;0.10;0.10;;;;;;;;;;5004125;28;20191;-61
2021/04/04 02:18:45;;;;;;;0.10;0.10;;;;;;;;;;5010742;28;20275;-61
2021/04/04 02:21:15;;;;;;;0.10;0.10;;;;;;;;;;5007899;28;20200;-61
2021/04/04 02:23:43;;;;;;;0.63;0.63;;;;;;;;;;5015334;28;20304;-61
2021/04/04 02:26:10;;;;;;;0.00;0.00;;;;;;;;;;5015917;28;20183;-61
2021/04/04 02:28:36;;;;;;;0.37;0.13;;;;;;;;;;5010637;28;20187;-62
2021/04/04 02:31:03;;;;;;;0.00;0.00;;;;;;;;;;5011960;28;20224;-61
2021/04/04 02:33:32;;;;;;;0.10;0.10;;;;;;;;;;5008728;28;20209;-62
2021/04/04 02:36:05;;;;;;;0.10;0.10;;;;;;;;;;5010497;28;20285;-62
2021/04/04 02:38:36;;;;;;;0.10;0.10;;;;;;;;;;5014389;28;20273;-62
2021/04/04 02:41:05;;;;;;;0.10;0.10;;;;;;;;;;5015104;28;20213;-61
2021/04/04 02:43:34;;;;;;;0.10;0.10;;;;;;;;;;5013298;28;20223;-61
2021/04/04 02:46:03;;;;;;;0.10;0.10;;;;;;;;;;5010759;28;20215;-62
2021/04/04 02:48:49;;;;;;;0.97;0.97;;;;;;;;;;5008676;28;20199;-61
2021/04/04 02:51:19;;;;;;;0.20;0.20;;;;;;;;;;5000272;28;20265;-60
2021/04/04 02:53:50;;;;;;;0.00;0.00;;;;;;;;;;5020923;28;20190;-61
2021/04/04 02:56:18;;;;;;;1.67;1.63;;;;;;;;;;5017975;28;20240;-60
2021/04/04 02:58:48;;;;;;;0.07;0.07;;;;;;;;;;5012984;28;20205;-60
2021/04/04 03:01:16;;;;;;;0.10;0.10;;;;;;;;;;5013315;28;20219;-60
2021/04/04 03:03:44;;;;;;;0.40;0.40;;;;;;;;;;5017135;28;20577;-60
2021/04/04 03:06:12;;;;;;;0.20;0.20;;;;;;;;;;5015788;28;20189;-61
2021/04/04 03:08:42;;;;;;;0.03;0.03;;;;;;;;;;5013127;28;20197;-61
2021/04/04 03:11:10;;;;;;;0.50;0.50;;;;;;;;;;5013369;28;20187;-61
2021/04/04 03:13:36;;;;;;;0.00;0.00;;;;;;;;;;5012581;28;20277;-61
2021/04/04 03:16:04;;;;;;;0.20;0.20;;;;;;;;;;5013668;28;20243;-61
2021/04/04 03:18:31;;;;;;;4.17;0.10;;;;;;;;;;5018335;28;20208;-61
2021/04/04 03:21:05;;;;;;;0.00;0.00;;;;;;;;;;4996156;28;20850;-62
2021/04/04 03:23:32;;;;;;;0.20;0.20;;;;;;;;;;5014649;28;20859;-61
2021/04/04 03:25:59;;;;;;;0.00;0.00;;;;;;;;;;5019531;28;20195;-60
2021/04/04 03:28:27;;;;;;;0.03;0.03;;;;;;;;;;5016646;28;20194;-60
2021/04/04 03:30:54;;;;;;;0.00;0.00;;;;;;;;;;5014096;28;20187;-60
2021/04/04 03:33:22;;;;;;;0.00;0.00;;;;;;;;;;5013573;28;20419;-59
2021/04/04 03:35:52;;;;;;;0.00;0.00;;;;;;;;;;5012737;28;20876;-60
2021/04/04 03:38:22;;;;;;;0.10;0.10;;;;;;;;;;5015765;28;20245;-60
2021/04/04 03:40:50;;;;;;;0.10;0.10;;;;;;;;;;5013624;28;20188;-60
2021/04/04 03:43:22;;;;;;;0.07;0.07;;;;;;;;;;5017318;28;20802;-60
2021/04/04 03:45:59;;;;;;;1.20;0.10;;;;;;;;;;5016669;28;21047;-58
2021/04/04 03:48:27;;;;;;;0.00;0.00;;;;;;;;;;5011035;28;20197;-60
2021/04/04 03:50:54;;;;;;;0.00;0.00;;;;;;;;;;5015850;28;20183;-61
2021/04/04 03:53:22;;;;;;;0.20;0.20;;;;;;;;;;5019978;28;20198;-61
2021/04/04 03:55:52;;;;;;;0.20;0.20;;;;;;;;;;5017709;28;20313;-61
2021/04/04 03:58:20;;;;;;;8.83;0.20;;;;;;;;;;5018287;28;20438;-60
2021/04/04 04:00:47;;;;;;;0.10;0.10;;;;;;;;;;5019661;28;20202;-60
2021/04/04 04:03:14;;;;;;;0.00;0.00;;;;;;;;;;5015678;28;20222;-60
2021/04/04 04:05:41;;;;;;;0.00;0.00;;;;;;;;;;5019986;28;20710;-60
2021/04/04 04:08:08;;;;;;;0.90;0.60;;;;;;;;;;5019621;28;20191;-61
2021/04/04 04:10:35;;;;;;;0.20;0.13;;;;;;;;;;5018490;28;20198;-60
2021/04/04 04:13:02;;;;;;;8.80;1.30;;;;;;;;;;5014525;28;20252;-60
2021/04/04 04:15:29;;;;;;;0.00;0.00;;;;;;;;;;5013206;28;20314;-60
2021/04/04 04:17:57;;;;;;;0.10;0.10;;;;;;;;;;5018875;28;20245;-59
2021/04/04 04:20:24;;;;;;;3.40;2.23;;;;;;;;;;5019510;28;20194;-60
2021/04/04 04:22:52;;;;;;;0.30;0.30;;;;;;;;;;5026476;28;20760;-60
2021/04/04 04:25:19;;;;;;;0.00;0.00;;;;;;;;;;5022498;28;20247;-61
2021/04/04 04:27:46;;;;;;;5.00;0.83;;;;;;;;;;5017244;28;20194;-61
2021/04/04 04:30:13;;;;;;;0.00;0.00;;;;;;;;;;5020073;28;20637;-60
2021/04/04 04:32:42;;;;;;;0.00;0.00;;;;;;;;;;5018627;28;20187;-60
2021/04/04 04:35:09;;;;;;;0.10;0.10;;;;;;;;;;5018048;28;21175;-61
2021/04/04 04:37:37;;;;;;;0.00;0.00;;;;;;;;;;5014931;28;20205;-61
2021/04/04 04:40:05;;;;;;;0.10;0.10;;;;;;;;;;5017441;28;20196;-61
2021/04/04 04:42:32;;;;;;;0.37;0.37;;;;;;;;;;5018868;28;20786;-60
2021/04/04 04:45:00;;;;;;;0.00;0.00;;;;;;;;;;5019124;28;20213;-61
2021/04/04 04:47:27;;;;;;;0.30;0.30;;;;;;;;;;5017626;28;20667;-61
2021/04/04 04:49:54;;;;;;;0.10;0.10;;;;;;;;;;5015087;28;20194;-61
2021/04/04 04:52:23;;;;;;;0.10;0.10;;;;;;;;;;5018216;28;20184;-60
2021/04/04 04:54:49;;;;;;;0.10;0.10;;;;;;;;;;5013557;28;21007;-60
2021/04/04 04:57:16;;;;;;;0.00;0.00;;;;;;;;;;5017813;28;20226;-60
2021/04/04 04:59:43;;;;;;;0.10;0.10;;;;;;;;;;5017165;28;20636;-60
2021/04/04 05:02:11;;;;;;;0.00;0.00;;;;;;;;;;5014816;28;21153;-60
2021/04/04 05:04:37;;;;;;;0.00;0.00;;;;;;;;;;5014965;28;20221;-60
2021/04/04 05:07:04;;;;;;;0.07;0.07;;;;;;;;;;5016142;28;20190;-60
2021/04/04 05:09:33;;;;;;;0.30;0.10;;;;;;;;;;5016960;28;20202;-60
2021/04/04 05:12:00;;;;;;;0.27;0.27;;;;;;;;;;5016264;28;21287;-60
2021/04/04 05:14:26;;;;;;;0.00;0.00;;;;;;;;;;5019570;28;20852;-60
2021/04/04 05:16:54;;;;;;;0.00;0.00;;;;;;;;;;5018753;28;20195;-61
2021/04/04 05:19:22;;;;;;;0.00;0.00;;;;;;;;;;5017825;28;20383;-60
2021/04/04 05:21:49;;;;;;;0.03;0.03;;;;;;;;;;5015276;28;20187;-60
2021/04/04 05:24:16;;;;;;;3.83;1.93;;;;;;;;;;5015108;28;20218;-60
2021/04/04 05:26:44;;;;;;;0.73;0.63;;;;;;;;;;5021753;28;20721;-60
2021/04/04 05:29:14;;;;;;;0.00;0.00;;;;;;;;;;5019427;28;20300;-60
2021/04/04 05:31:47;;;;;;;4.43;4.03;;;;;;;;;;5018077;28;20186;-60
2021/04/04 05:34:14;;;;;;;0.00;0.00;;;;;;;;;;5015685;28;20290;-60
2021/04/04 05:36:51;;;;;;;0.00;0.00;;;;;;;;;;5013954;28;20225;-61
2021/04/04 05:39:19;;;;;;;0.10;0.10;;;;;;;;;;5016078;28;20190;-61
2021/04/04 05:41:50;;;;;;;0.10;0.10;;;;;;;;;;5015955;28;20232;-61
2021/04/04 05:44:24;;;;;;;0.00;0.00;;;;;;;;;;5016073;28;20225;-60
2021/04/04 05:46:56;;;;;;;0.20;0.20;;;;;;;;;;5015690;28;20916;-61
2021/04/04 05:49:31;;;;;;;0.47;0.47;;;;;;;;;;5015747;28;20756;-60
2021/04/04 05:52:13;;;;;;;0.00;0.00;;;;;;;;;;5016646;28;20186;-60
2021/04/04 05:54:58;;;;;;;0.10;0.10;;;;;;;;;;5016979;28;20478;-60
2021/04/04 05:57:46;;;;;;;0.00;0.00;;;;;;;;;;5014332;28;20241;-61
2021/04/04 06:00:13;;;;;;;0.10;0.10;;;;;;;;;;5016094;28;20252;-61
2021/04/04 06:02:58;;;;;;;0.00;0.00;;;;;;;;;;5017927;28;20190;-61
2021/04/04 06:05:43;;;;;;;0.03;0.03;;;;;;;;;;5014749;28;20302;-60
2021/04/04 06:08:18;;;;;;;0.00;0.00;;;;;;;;;;5017751;28;20980;-60
2021/04/04 06:10:59;;;;;;;1.00;0.97;;;;;;;;;;5019171;28;20193;-60
2021/04/04 06:13:44;;;;;;;0.00;0.00;;;;;;;;;;5010632;28;20190;-61
2021/04/04 06:16:29;;;;;;;0.10;0.10;;;;;;;;;;5019478;28;20190;-60
2021/04/04 06:19:15;;;;;;;0.00;0.00;;;;;;;;;;5015705;28;20182;-61
2021/04/04 06:22:00;;;;;;;0.00;0.00;;;;;;;;;;5015540;28;20178;-61
2021/04/04 06:24:33;;;;;;;0.00;0.00;;;;;;;;;;5017817;28;20206;-61
2021/04/04 06:27:18;;;;;;;0.00;0.00;;;;;;;;;;5007839;28;20186;-61
2021/04/04 06:30:20;;;;;;;0.13;0.13;;;;;;;;;;5019788;28;20988;-61
2021/04/04 06:33:07;;;;;;;0.33;0.27;;;;;;;;;;5019601;28;20198;-61
2021/04/04 06:35:40;;;;;;;0.00;0.00;;;;;;;;;;5025660;28;20651;-61
2021/04/04 06:38:09;;;;;;;0.70;0.60;;;;;;;;;;5020769;28;20356;-61
2021/04/04 06:40:43;;;;;;;0.37;0.37;;;;;;;;;;5020277;28;20302;-61
2021/04/04 06:43:39;;;;;;;0.00;0.00;;;;;;;;;;5021214;28;20195;-61
2021/04/04 06:46:18;;;;;;;0.10;0.10;;;;;;;;;;5001628;28;20226;-61
2021/04/04 06:48:47;;;;;;;0.00;0.00;;;;;;;;;;5019327;28;20225;-61
2021/04/04 06:51:40;;;;;;;0.23;0.20;;;;;;;;;;5023888;28;20187;-60
2021/04/04 06:54:31;;;;;;;2.43;0.80;;;;;;;;;;4992383;28;20289;-60
2021/04/04 06:57:06;;;;;;;0.00;0.00;;;;;;;;;;4970758;28;20227;-60
2021/04/04 06:59:49;;;;;;;0.20;0.20;;;;;;;;;;4980750;28;20266;-61
2021/04/04 07:02:19;;;;;;;0.00;0.00;;;;;;;;;;4977636;28;20194;-60
2021/04/04 07:04:56;;;;;;;0.03;0.03;;;;;;;;;;4979035;28;20985;-60
2021/04/04 07:07:41;;;;;;;2.47;1.13;;;;;;;;;;4982420;28;20177;-60
2021/04/04 07:10:11;;;;;;;4.00;0.37;;;;;;;;;;4981182;28;20176;-61
2021/04/04 07:12:41;;;;;;;0.27;0.27;;;;;;;;;;4979365;28;20387;-60
2021/04/04 07:15:07;;;;;;;0.47;0.37;;;;;;;;;;4980899;28;20197;-60
2021/04/04 07:17:34;;;;;;;0.00;0.00;;;;;;;;;;4979855;28;20187;-59
2021/04/04 07:20:12;;;;;;;0.57;0.20;;;;;;;;;;4977888;28;20183;-60
2021/04/04 07:22:57;;;;;;;0.50;0.50;;;;;;;;;;4976558;28;20337;-61
2021/04/04 07:25:42;;;;;;;0.00;0.00;;;;;;;;;;4985651;28;20648;-60
2021/04/04 07:28:08;;;;;;;0.00;0.00;;;;;;;;;;4978560;28;20266;-60
2021/04/04 07:30:43;;;;;;;0.00;0.00;;;;;;;;;;4979938;28;20292;-61
2021/04/04 07:33:28;;;;;;;0.00;0.00;;;;;;;;;;4980217;28;20197;-61
2021/04/04 07:36:14;;;;;;;0.27;0.27;;;;;;;;;;4980196;28;20183;-60
2021/04/04 07:38:59;;;;;;;0.00;0.00;;;;;;;;;;4978114;28;20270;-60
2021/04/04 07:41:36;;;;;;;0.97;0.57;;;;;;;;;;4980789;28;20196;-60
2021/04/04 07:44:15;;;;;;;0.00;0.00;;;;;;;;;;4980343;28;20231;-60
2021/04/04 07:46:53;;;;;;;0.00;0.00;;;;;;;;;;4976958;28;20188;-60
2021/04/04 07:49:26;;;;;;;0.00;0.00;;;;;;;;;;4980611;28;20184;-60
2021/04/04 07:51:55;;;;;;;0.00;0.00;;;;;;;;;;4978266;28;20310;-60
2021/04/04 07:54:27;;;;;;;6.70;2.53;;;;;;;;;;4979548;28;20207;-60
2021/04/04 07:56:54;;;;;;;0.00;0.00;;;;;;;;;;5008677;28;20233;-60
2021/04/04 07:59:56;;;;;;;0.00;0.00;;;;;;;;;;5018734;28;20198;-60
2021/04/04 08:02:30;;;;;;;0.00;0.00;;;;;;;;;;4957832;28;20752;-61
2021/04/04 08:05:05;;;;;;;0.00;0.00;;;;;;;;;;5010593;28;20234;-60
2021/04/04 08:07:35;;;;;;;0.43;0.13;;;;;;;;;;5019956;28;20200;-60
2021/04/04 08:10:02;;;;;;;0.43;0.23;;;;;;;;;;5020724;28;20352;-60
2021/04/04 13:24:17;;;;;;;3.10;1.30;;;;;;;;;;5071582;27;20590;-61
2021/04/04 13:26:53;;;;;;;1.07;0.57;;;;;;;;;;5077682;28;20198;-61
2021/04/04 13:29:22;;;;;;;0.73;0.10;;;;;;;;;;5071367;28;20189;-61
2021/04/04 13:31:56;;;;;;;15.57;4.47;;;;;;;;;;5064821;28;20190;-60
2021/04/04 13:34:24;;;;;;;0.00;0.00;;;;;;;;;;5065576;28;20183;-61
2021/04/04 13:36:51;;;;;;;0.20;0.10;;;;;;;;;;5076580;28;20186;-61
2021/04/04 13:39:21;;;;;;;0.10;0.00;;;;;;;;;;5077532;28;20192;-61
2021/04/04 13:41:48;;;;;;;0.00;0.00;;;;;;;;;;5055858;28;20188;-61
2021/04/04 13:44:16;;;;;;;0.83;0.40;;;;;;;;;;5064335;28;20180;-61
2021/04/04 13:46:49;;;;;;;3.60;0.40;;;;;;;;;;5057631;28;20187;-61
2021/04/04 13:49:16;;;;;;;0.00;0.00;;;;;;;;;;5056506;28;20274;-61
2021/04/04 13:51:45;;;;;;;0.10;0.10;;;;;;;;;;5069662;28;20178;-61
2021/04/04 13:54:12;;;;;;;0.00;0.00;;;;;;;;;;5064413;28;20182;-61
2021/04/04 13:56:45;;;;;;;0.00;0.00;;;;;;;;;;5069502;28;20193;-61
2021/04/04 13:59:25;;;;;;;0.30;0.27;;;;;;;;;;5062950;28;20264;-61
2021/04/04 14:01:52;;;;;;;0.00;0.00;;;;;;;;;;5070143;28;20289;-60
2021/04/04 14:04:21;;;;;;;8.43;0.70;;;;;;;;;;5065277;28;20186;-61
2021/04/04 14:06:57;;;;;;;0.13;0.13;;;;;;;;;;5068592;28;20235;-61
2021/04/04 14:09:34;;;;;;;0.30;0.30;;;;;;;;;;5061227;28;20236;-61
2021/04/04 14:12:01;;;;;;;0.30;0.20;;;;;;;;;;5071150;28;20273;-61
2021/04/04 14:14:28;;;;;;;0.97;0.87;;;;;;;;;;5065661;28;20183;-61
2021/04/04 14:16:55;;;;;;;0.20;0.20;;;;;;;;;;5062559;28;20178;-61
2021/04/04 14:19:22;;;;;;;1.37;0.30;;;;;;;;;;5063646;28;20183;-62
2021/04/04 14:21:50;;;;;;;0.00;0.00;;;;;;;;;;5061734;28;21030;-62
2021/04/04 14:24:16;;;;;;;0.47;0.10;;;;;;;;;;5073347;28;20181;-61
2021/04/04 14:26:43;;;;;;;0.00;0.00;;;;;;;;;;5063142;28;20241;-61
2021/04/04 14:29:10;;;;;;;0.20;0.20;;;;;;;;;;5061120;28;20282;-61
2021/04/04 14:31:37;;;;;;;1.27;0.33;;;;;;;;;;5062580;28;20194;-61
2021/04/04 14:34:04;;;;;;;1.77;1.13;;;;;;;;;;5055913;28;20215;-61
2021/04/04 14:36:31;;;;;;;2.43;1.13;;;;;;;;;;5056696;28;20216;-61
2021/04/04 14:38:59;;;;;;;0.93;0.63;;;;;;;;;;5049120;28;20175;-61
2021/04/04 14:41:26;;;;;;;0.20;0.20;;;;;;;;;;5062030;28;20745;-62
2021/04/04 14:46:23;;;;;;;0.27;0.27;;;;;;;;;;5061333;28;20180;-62
2021/04/04 14:48:50;;;;;;;0.00;0.00;;;;;;;;;;5044740;28;20195;-62
2021/04/04 14:51:17;;;;;;;5.10;0.47;;;;;;;;;;5057097;28;20190;-62
2021/04/04 14:53:44;;;;;;;0.27;0.27;;;;;;;;;;5049787;28;20191;-62
2021/04/04 14:56:11;;;;;;;1.27;0.40;;;;;;;;;;5057495;28;20179;-61
2021/04/04 14:58:39;;;;;;;0.87;0.40;;;;;;;;;;5049893;28;20194;-61
2021/04/04 15:01:07;;;;;;;0.83;0.83;;;;;;;;;;5063113;28;20187;-61
2021/04/04 15:03:33;;;;;;;5.23;0.20;;;;;;;;;;5062799;28;20227;-62
2021/04/04 15:06:00;;;;;;;1.73;0.60;;;;;;;;;;5072593;28;20269;-61
2021/04/04 15:08:27;;;;;;;0.00;0.00;;;;;;;;;;5043167;28;20183;-61
2021/04/04 15:10:55;;;;;;;0.00;0.00;;;;;;;;;;5043256;28;20226;-61
2021/04/04 15:13:22;;;;;;;0.00;0.00;;;;;;;;;;5061251;28;20579;-61
2021/04/04 15:15:50;;;;;;;1.03;0.33;;;;;;;;;;5044236;28;20233;-62
2021/04/04 15:18:17;;;;;;;0.10;0.10;;;;;;;;;;5048284;28;20183;-61
2021/04/04 15:20:44;;;;;;;0.93;0.27;;;;;;;;;;5055898;28;20614;-62
2021/04/04 15:23:11;;;;;;;0.43;0.43;;;;;;;;;;5052423;28;20288;-62
2021/04/04 15:25:38;;;;;;;3.70;1.80;;;;;;;;;;5061605;28;20191;-61
2021/04/04 15:28:05;;;;;;;2.73;0.83;;;;;;;;;;5055909;28;20262;-62
2021/04/04 15:30:33;;;;;;;7.43;1.03;;;;;;;;;;5054370;28;20187;-61
2021/04/04 15:33:03;;;;;;;2.73;0.53;;;;;;;;;;5048389;28;20205;-61
2021/04/04 15:35:31;;;;;;;0.53;0.20;;;;;;;;;;5040894;28;20193;-62
2021/04/04 15:37:58;;;;;;;0.10;0.10;;;;;;;;;;5047753;28;20663;-61
2021/04/04 15:40:26;;;;;;;3.10;0.83;;;;;;;;;;5048740;28;20728;-61
2021/04/04 15:42:53;;;;;;;0.77;0.30;;;;;;;;;;5054106;28;20202;-61
2021/04/04 15:45:22;;;;;;;0.00;0.00;;;;;;;;;;5054296;28;20191;-61
2021/04/04 15:47:50;;;;;;;0.20;0.20;;;;;;;;;;5054545;28;20182;-59
2021/04/04 15:50:18;;;;;;;0.03;0.03;;;;;;;;;;5048215;28;20849;-59
2021/04/04 15:52:45;;;;;;;0.00;0.00;;;;;;;;;;5047948;28;20244;-59
2021/04/04 15:55:12;;;;;;;0.00;0.00;;;;;;;;;;5047055;28;20180;-59
2021/04/04 15:57:39;;;;;;;0.00;0.00;;;;;;;;;;5041449;28;20263;-59
2021/04/04 16:00:06;;;;;;;1.03;0.37;;;;;;;;;;5060167;28;20196;-60
2021/04/04 16:02:33;;;;;;;0.67;0.53;;;;;;;;;;5061335;28;20225;-60
2021/04/04 16:05:00;;;;;;;0.00;0.00;;;;;;;;;;5052652;28;20185;-60
2021/04/04 16:07:26;;;;;;;0.07;0.03;;;;;;;;;;5058886;28;20188;-60
2021/04/04 16:09:54;;;;;;;0.00;0.00;;;;;;;;;;5059352;28;20189;-60
2021/04/04 16:12:21;;;;;;;0.00;0.00;;;;;;;;;;5053908;28;20197;-60
2021/04/04 16:14:47;;;;;;;0.83;0.13;;;;;;;;;;5050416;28;20240;-61
2021/04/04 16:17:14;;;;;;;0.30;0.30;;;;;;;;;;5040828;28;20190;-60
2021/04/04 16:19:41;;;;;;;1.50;0.70;;;;;;;;;;5052929;28;20185;-60
2021/04/04 16:22:07;;;;;;;0.13;0.10;;;;;;;;;;5052991;28;20224;-60
2021/04/04 16:24:35;;;;;;;2.83;0.53;;;;;;;;;;5059290;28;20197;-60
2021/04/04 16:27:02;;;;;;;0.40;0.40;;;;;;;;;;5042305;28;20319;-60
2021/04/04 16:29:28;;;;;;;0.00;0.00;;;;;;;;;;5053645;28;20181;-60
2021/04/04 16:31:55;;;;;;;0.43;0.43;;;;;;;;;;5055511;28;20331;-61
2021/04/04 16:34:22;;;;;;;1.70;1.50;;;;;;;;;;5059664;28;20188;-60
2021/04/04 16:36:49;;;;;;;0.00;0.00;;;;;;;;;;5061676;28;20192;-60
2021/04/04 16:39:15;;;;;;;0.00;0.00;;;;;;;;;;5061025;28;20181;-60
2021/04/04 16:41:42;;;;;;;7.73;0.57;;;;;;;;;;5060903;28;20183;-60
2021/04/04 16:44:10;;;;;;;0.03;0.03;;;;;;;;;;5055703;28;20234;-60
2021/04/04 16:46:36;;;;;;;0.10;0.10;;;;;;;;;;5042052;28;20917;-60
2021/04/04 16:49:03;;;;;;;0.00;0.00;;;;;;;;;;5046202;28;20182;-60
2021/04/04 16:51:29;;;;;;;3.17;0.43;;;;;;;;;;5055236;28;20183;-60
2021/04/04 16:53:56;;;;;;;10.40;0.40;;;;;;;;;;5048138;28;20193;-60
2021/04/04 16:56:22;;;;;;;0.10;0.10;;;;;;;;;;5054683;28;20228;-60
2021/04/04 16:58:49;;;;;;;2.00;0.60;;;;;;;;;;5040834;28;20214;-60
2021/04/04 17:01:16;;;;;;;5.07;1.33;;;;;;;;;;5040988;28;20726;-60
2021/04/04 17:03:42;;;;;;;0.60;0.30;;;;;;;;;;5046316;28;20199;-60
2021/04/04 17:06:09;;;;;;;3.63;0.20;;;;;;;;;;5052747;28;20178;-60
2021/04/04 17:08:35;;;;;;;0.53;0.40;;;;;;;;;;5041519;28;21037;-61
2021/04/04 17:11:02;;;;;;;0.77;0.27;;;;;;;;;;5051473;28;20644;-61
2021/04/04 17:13:29;;;;;;;0.63;0.37;;;;;;;;;;5049838;28;20190;-60
2021/04/04 17:15:56;;;;;;;0.00;0.00;;;;;;;;;;5040934;28;20197;-60
2021/04/04 17:18:23;;;;;;;0.17;0.17;;;;;;;;;;5050219;28;20914;-60
2021/04/04 17:20:53;;;;;;;0.73;0.73;;;;;;;;;;5049434;28;20303;-60
2021/04/04 17:23:20;;;;;;;0.00;0.00;;;;;;;;;;5061666;28;20342;-60
2021/04/04 17:25:48;;;;;;;1.10;0.60;;;;;;;;;;5042676;28;20190;-60
2021/04/04 17:28:15;;;;;;;3.40;3.20;;;;;;;;;;5051147;28;20194;-60
2021/04/04 17:30:42;;;;;;;0.00;0.00;;;;;;;;;;5049622;28;20679;-61
2021/04/04 17:33:10;;;;;;;0.00;0.00;;;;;;;;;;5040541;28;20200;-61
2021/04/04 17:35:38;;;;;;;0.47;0.40;;;;;;;;;;5051399;28;20210;-61
2021/04/04 17:38:05;;;;;;;0.00;0.00;;;;;;;;;;5055636;28;20187;-60
2021/04/04 17:40:32;;;;;;;0.00;0.00;;;;;;;;;;5046288;28;20667;-60
2021/04/04 17:42:58;;;;;;;0.10;0.10;;;;;;;;;;5061937;28;20554;-59
2021/04/04 17:45:25;;;;;;;6.50;0.30;;;;;;;;;;5057080;28;20780;-59
2021/04/04 17:47:52;;;;;;;3.80;1.40;;;;;;;;;;5061809;28;20251;-59
2021/04/04 17:50:20;;;;;;;0.10;0.00;;;;;;;;;;5054670;28;20319;-59
2021/04/04 17:52:47;;;;;;;0.40;0.40;;;;;;;;;;5052639;28;20183;-59
2021/04/04 17:55:16;;;;;;;0.00;0.00;;;;;;;;;;5059999;28;20186;-59
2021/04/04 17:57:44;;;;;;;0.47;0.20;;;;;;;;;;5058773;28;20261;-59
2021/04/04 18:00:15;;;;;;;0.10;0.00;;;;;;;;;;5064610;28;20190;-59
2021/04/04 18:02:47;;;;;;;0.13;0.13;;;;;;;;;;5059300;28;20202;-59
2021/04/04 18:06:04;;;;;;;0.00;0.00;;;;;;;;;;5058714;28;20184;-59
2021/04/04 18:08:55;;;;;;;0.20;0.20;;;;;;;;;;5053612;28;20195;-59
2021/04/04 18:11:06;;;;;;;3.10;1.47;;;;;;;;;;5065600;28;20191;-59
2021/04/04 18:13:41;;;;;;;0.10;0.00;;;;;;;;;;5058926;28;20939;-59
2021/04/04 18:16:10;;;;;;;0.00;0.00;;;;;;;;;;5064570;28;20702;-59
2021/04/04 18:18:39;;;;;;;0.43;0.23;;;;;;;;;;5060209;28;20196;-59
2021/04/04 18:21:08;;;;;;;0.00;0.00;;;;;;;;;;5058723;28;20251;-59
2021/04/04 18:23:37;;;;;;;0.00;0.00;;;;;;;;;;5059661;28;20284;-59
2021/04/04 18:26:05;;;;;;;0.00;0.00;;;;;;;;;;5063203;28;20190;-59
2021/04/04 18:28:32;;;;;;;0.83;0.23;;;;;;;;;;5059010;28;20190;-59
2021/04/04 18:31:00;;;;;;;0.10;0.07;;;;;;;;;;5054597;28;20175;-59
2021/04/04 18:33:27;;;;;;;0.00;0.00;;;;;;;;;;5060941;28;20183;-59
2021/04/04 18:35:54;;;;;;;0.00;0.00;;;;;;;;;;5055517;28;20466;-58
2021/04/04 18:38:21;;;;;;;0.10;0.10;;;;;;;;;;5057695;28;20178;-59
2021/04/04 18:40:50;;;;;;;0.00;0.00;;;;;;;;;;5060629;28;20233;-59
2021/04/04 18:43:18;;;;;;;0.00;0.00;;;;;;;;;;5059394;28;20259;-58
2021/04/04 18:45:45;;;;;;;0.00;0.00;;;;;;;;;;5056960;28;20183;-59
2021/04/04 18:48:11;;;;;;;0.13;0.13;;;;;;;;;;5051030;28;20213;-59
2021/04/04 18:50:39;;;;;;;0.00;0.00;;;;;;;;;;5069212;28;20654;-59
2021/04/04 18:53:06;;;;;;;0.00;0.00;;;;;;;;;;5058491;28;20222;-58
2021/04/04 18:55:34;;;;;;;0.07;0.07;;;;;;;;;;5056780;28;20721;-59
2021/04/04 18:58:00;;;;;;;0.00;0.00;;;;;;;;;;5058386;28;20191;-59
2021/04/04 19:00:28;;;;;;;0.00;0.00;;;;;;;;;;5058432;28;20201;-59
2021/04/04 19:02:56;;;;;;;0.00;0.00;;;;;;;;;;5062494;28;20206;-58
2021/04/04 19:05:24;;;;;;;0.63;0.50;;;;;;;;;;5057452;28;20261;-59
2021/04/04 19:07:52;;;;;;;0.30;0.30;;;;;;;;;;5057845;28;20183;-60
2021/04/04 19:10:20;;;;;;;0.00;0.00;;;;;;;;;;5058610;28;20234;-60
2021/04/04 19:12:47;;;;;;;3.40;0.30;;;;;;;;;;5052146;28;20186;-59
2021/04/04 19:15:14;;;;;;;1.97;1.53;;;;;;;;;;5047136;28;20232;-59
2021/04/04 19:17:42;;;;;;;0.00;0.00;;;;;;;;;;5049710;28;21015;-61
2021/04/04 19:20:12;;;;;;;2.37;0.40;;;;;;;;;;5052033;28;20345;-60
2021/04/04 19:22:40;;;;;;;0.00;0.00;;;;;;;;;;5051216;28;20226;-60
2021/04/04 19:25:07;;;;;;;0.43;0.43;;;;;;;;;;5045980;28;20721;-61
2021/04/04 19:27:33;;;;;;;0.83;0.03;;;;;;;;;;5051204;28;20176;-61
2021/04/04 19:30:00;;;;;;;0.73;0.43;;;;;;;;;;5051955;28;20195;-62
2021/04/04 19:32:28;;;;;;;0.00;0.00;;;;;;;;;;5051253;28;20179;-61
2021/04/04 19:34:55;;;;;;;0.10;0.10;;;;;;;;;;5052234;28;20184;-61
2021/04/04 19:37:21;;;;;;;0.27;0.20;;;;;;;;;;5048195;28;20190;-61
2021/04/04 19:39:48;;;;;;;1.27;1.23;;;;;;;;;;5049710;28;20187;-61
2021/04/04 19:42:16;;;;;;;1.13;0.87;;;;;;;;;;5054773;28;20254;-61
2021/04/04 19:44:43;;;;;;;0.00;0.00;;;;;;;;;;5051281;28;20186;-61
2021/04/04 19:47:09;;;;;;;0.33;0.20;;;;;;;;;;5049329;28;20664;-61
2021/04/04 19:49:36;;;;;;;0.00;0.00;;;;;;;;;;5055495;28;20183;-61
2021/04/04 19:52:04;;;;;;;0.00;0.00;;;;;;;;;;5051594;28;20184;-61
2021/04/04 19:54:31;;;;;;;0.10;0.10;;;;;;;;;;5052338;28;20292;-61
2021/04/04 19:56:57;;;;;;;1.33;0.20;;;;;;;;;;5052105;28;20711;-61
2021/04/04 19:59:24;;;;;;;6.03;0.13;;;;;;;;;;5051852;28;20979;-61
2021/04/04 20:01:52;;;;;;;2.90;0.63;;;;;;;;;;5050091;28;20203;-61
2021/04/04 20:04:19;;;;;;;0.87;0.73;;;;;;;;;;5054679;28;20747;-62
2021/04/04 20:06:45;;;;;;;0.00;0.00;;;;;;;;;;5048124;28;20572;-61
2021/04/04 20:09:12;;;;;;;0.20;0.20;;;;;;;;;;5054290;28;21021;-61
2021/04/04 20:11:40;;;;;;;0.00;0.00;;;;;;;;;;5047857;28;20197;-61
2021/04/04 20:14:06;;;;;;;1.23;0.57;;;;;;;;;;5047332;28;20400;-61